createdAt,value
2022-09-02T00:01:57.510Z,14.80
2022-09-02T00:04:27.909Z,14.80
2022-09-02T00:06:57.493Z,14.74
2022-09-02T00:09:29.702Z,14.70
2022-09-02T00:11:59.678Z,14.70
2022-09-02T00:14:32.826Z,14.70
2022-09-02T00:17:02.420Z,14.70
2022-09-02T00:19:32.801Z,14.70
2022-09-02T00:22:03.429Z,14.70
2022-09-02T00:24:33.598Z,14.70
2022-09-02T00:27:02.946Z,14.60
2022-09-02T00:29:32.372Z,14.60
2022-09-02T00:32:01.931Z,14.60
2022-09-02T00:34:32.540Z,14.60
2022-09-02T00:37:01.096Z,14.50
2022-09-02T00:39:30.480Z,14.50
2022-09-02T00:42:00.909Z,14.50
2022-09-02T00:44:29.414Z,14.50
2022-09-02T00:46:58.691Z,14.40
2022-09-02T00:49:30.763Z,14.40
2022-09-02T00:52:05.128Z,14.40
2022-09-02T00:54:40.772Z,14.40
2022-09-02T00:57:17.470Z,14.40
2022-09-02T01:00:01.468Z,14.40
2022-09-02T01:02:31.458Z,14.40
2022-09-02T01:05:03.422Z,14.40
2022-09-02T01:07:38.126Z,14.40
2022-09-02T01:10:14.516Z,14.36
2022-09-02T01:12:44.331Z,14.34
2022-09-02T01:15:15.490Z,14.30
2022-09-02T01:17:49.154Z,14.30
2022-09-02T01:20:25.848Z,14.30
2022-09-02T01:22:57.823Z,14.28
2022-09-02T01:25:30.873Z,14.20
2022-09-02T01:28:04.194Z,14.20
2022-09-02T01:30:36.126Z,14.20
2022-09-02T01:33:05.615Z,14.20
2022-09-02T01:35:35.942Z,14.20
2022-09-02T01:38:06.406Z,14.20
2022-09-02T01:40:36.299Z,14.20
2022-09-02T01:43:10.918Z,14.10
2022-09-02T01:45:42.870Z,14.00
2022-09-02T01:48:21.260Z,13.92
2022-09-02T01:50:56.466Z,13.90
2022-09-02T01:53:27.199Z,13.80
2022-09-02T01:55:57.482Z,13.70
2022-09-02T01:58:27.026Z,13.70
2022-09-02T02:00:57.173Z,13.60
2022-09-02T02:03:26.464Z,13.60
2022-09-02T02:05:59.977Z,13.60
2022-09-02T02:08:29.966Z,13.50
2022-09-02T02:11:01.214Z,13.50
2022-09-02T02:13:32.370Z,13.44
2022-09-02T02:16:02.160Z,13.40
2022-09-02T02:18:31.575Z,13.40
2022-09-02T02:21:01.404Z,13.38
2022-09-02T02:23:30.998Z,13.30
2022-09-02T02:26:00.301Z,13.30
2022-09-02T02:28:30.740Z,13.30
2022-09-02T02:31:00.783Z,13.30
2022-09-02T02:33:36.061Z,13.30
2022-09-02T02:36:08.404Z,13.30
2022-09-02T02:38:39.358Z,13.30
2022-09-02T02:41:09.315Z,13.36
2022-09-02T02:43:39.732Z,13.40
2022-09-02T02:46:09.056Z,13.40
2022-09-02T02:48:39.156Z,13.40
2022-09-02T02:51:09.992Z,13.40
2022-09-02T02:53:39.703Z,13.40
2022-09-02T02:56:10.932Z,13.40
2022-09-02T02:58:40.264Z,13.40
2022-09-02T03:01:11.696Z,13.48
2022-09-02T03:03:43.149Z,13.50
2022-09-02T03:06:12.866Z,13.50
2022-09-02T03:08:42.678Z,13.50
2022-09-02T03:11:14.127Z,13.50
2022-09-02T03:13:43.935Z,13.50
2022-09-02T03:16:14.071Z,13.50
2022-09-02T03:18:43.763Z,13.50
2022-09-02T03:21:13.694Z,13.50
2022-09-02T03:23:43.488Z,13.50
2022-09-02T03:26:15.966Z,13.50
2022-09-02T03:28:49.057Z,13.42
2022-09-02T03:31:23.438Z,13.40
2022-09-02T03:33:53.406Z,13.40
2022-09-02T03:36:27.894Z,13.40
2022-09-02T03:38:58.588Z,13.40
2022-09-02T03:41:29.792Z,13.32
2022-09-02T03:43:59.607Z,13.30
2022-09-02T03:46:31.032Z,13.30
2022-09-02T03:49:00.494Z,13.30
2022-09-02T03:51:31.295Z,13.30
2022-09-02T03:54:03.527Z,13.20
2022-09-02T03:56:33.284Z,13.20
2022-09-02T03:59:04.756Z,13.20
2022-09-02T04:01:34.996Z,13.20
2022-09-02T04:04:06.558Z,13.10
2022-09-02T04:06:37.363Z,13.10
2022-09-02T04:09:07.767Z,13.00
2022-09-02T04:11:42.207Z,13.00
2022-09-02T04:14:11.897Z,13.00
2022-09-02T04:16:41.806Z,12.90
2022-09-02T04:19:11.730Z,12.90
2022-09-02T04:21:42.499Z,12.90
2022-09-02T04:24:13.081Z,12.90
2022-09-02T04:26:45.999Z,12.88
2022-09-02T04:29:17.434Z,12.90
2022-09-02T04:31:50.000Z,12.90
2022-09-02T04:34:20.278Z,12.90
2022-09-02T04:36:50.559Z,12.90
2022-09-02T04:39:20.675Z,12.90
2022-09-02T04:41:51.203Z,12.90
2022-09-02T04:44:23.775Z,12.82
2022-09-02T04:46:53.416Z,12.80
2022-09-02T04:49:24.247Z,12.80
2022-09-02T04:51:56.222Z,12.70
2022-09-02T04:54:27.437Z,12.70
2022-09-02T04:56:58.575Z,12.60
2022-09-02T04:59:28.809Z,12.60
2022-09-02T05:02:04.791Z,12.60
2022-09-02T05:04:36.511Z,12.56
2022-09-02T05:07:06.120Z,12.52
2022-09-02T05:09:39.619Z,12.56
2022-09-02T05:12:09.549Z,12.60
2022-09-02T05:14:54.193Z,12.60
2022-09-02T05:17:26.259Z,12.60
2022-09-02T05:19:56.991Z,12.60
2022-09-02T05:22:29.169Z,12.70
2022-09-02T05:24:59.523Z,12.74
2022-09-02T05:27:30.627Z,12.86
2022-09-02T05:30:00.235Z,13.00
2022-09-02T05:32:34.440Z,13.16
2022-09-02T05:35:09.365Z,13.36
2022-09-02T05:37:39.023Z,13.60
2022-09-02T05:40:11.971Z,14.00
2022-09-02T05:42:44.968Z,14.38
2022-09-02T05:45:18.923Z,14.70
2022-09-02T05:47:49.811Z,15.06
2022-09-02T05:50:20.458Z,15.28
2022-09-02T05:52:51.360Z,15.38
2022-09-02T05:55:21.297Z,15.50
2022-09-02T05:57:51.653Z,15.60
2022-09-02T06:00:21.468Z,15.70
2022-09-02T06:02:56.633Z,15.70
2022-09-02T06:05:29.558Z,15.80
2022-09-02T06:08:07.259Z,15.90
2022-09-02T06:10:42.919Z,15.90
2022-09-02T06:13:14.182Z,16.10
2022-09-02T06:15:44.564Z,16.40
2022-09-02T06:18:14.426Z,16.70
2022-09-02T06:20:47.210Z,17.00
2022-09-02T06:23:17.209Z,17.20
2022-09-02T06:25:48.622Z,17.30
2022-09-02T06:28:18.069Z,17.40
2022-09-02T06:30:49.081Z,17.40
2022-09-02T06:33:19.846Z,17.30
2022-09-02T06:35:50.053Z,17.20
2022-09-02T06:38:20.308Z,17.12
2022-09-02T06:40:53.293Z,17.12
2022-09-02T06:43:28.085Z,17.20
2022-09-02T06:46:14.243Z,17.30
2022-09-02T06:48:43.590Z,17.30
2022-09-02T06:51:19.144Z,17.36
2022-09-02T06:53:49.757Z,17.40
2022-09-02T06:56:20.155Z,17.40
2022-09-02T06:58:48.778Z,17.50
2022-09-02T07:01:23.815Z,17.50
2022-09-02T07:04:12.475Z,17.50
2022-09-02T07:06:45.841Z,17.60
2022-09-02T07:09:19.150Z,17.70
2022-09-02T07:11:49.771Z,17.80
2022-09-02T07:14:20.923Z,17.90
2022-09-02T07:16:56.921Z,18.00
2022-09-02T07:19:30.692Z,18.10
2022-09-02T07:22:00.498Z,18.28
2022-09-02T07:24:30.006Z,18.30
2022-09-02T07:26:59.306Z,18.30
2022-09-02T07:29:29.493Z,18.30
2022-09-02T07:31:59.439Z,18.40
2022-09-02T07:34:30.792Z,18.50
2022-09-02T07:37:05.129Z,18.60
2022-09-02T07:39:37.002Z,18.72
2022-09-02T07:42:07.835Z,18.80
2022-09-02T07:44:37.514Z,18.80
2022-09-02T07:47:07.539Z,18.80
2022-09-02T07:52:30.181Z,19.20
2022-09-02T07:54:59.506Z,19.30
2022-09-02T07:57:29.109Z,19.50
2022-09-02T07:59:58.871Z,19.60
2022-09-02T08:02:28.255Z,19.70
2022-09-02T08:04:58.140Z,19.80
2022-09-02T08:07:28.691Z,19.90
2022-09-02T08:10:00.495Z,20.00
2022-09-02T08:12:29.834Z,20.10
2022-09-02T08:14:59.234Z,20.20
2022-09-02T08:17:28.732Z,20.30
2022-09-02T08:19:58.349Z,20.34
2022-09-02T08:25:11.441Z,20.50
2022-09-02T08:27:42.878Z,20.62
2022-09-02T08:30:13.522Z,20.98
2022-09-02T08:32:43.026Z,21.12
2022-09-02T08:35:12.386Z,21.50
2022-09-02T08:37:42.022Z,21.90
2022-09-02T08:40:19.478Z,22.20
2022-09-02T08:42:51.912Z,22.44
2022-09-02T08:45:27.972Z,22.70
2022-09-02T08:48:20.367Z,22.90
2022-09-02T08:50:57.839Z,23.20
2022-09-02T08:53:32.885Z,23.74
2022-09-02T08:56:05.265Z,24.18
2022-09-02T08:58:42.433Z,24.66
2022-09-02T09:01:20.603Z,25.10
2022-09-02T09:04:08.646Z,25.50
2022-09-02T09:06:58.981Z,25.82
2022-09-02T09:09:43.094Z,26.10
2022-09-02T09:12:32.398Z,26.40
2022-09-02T09:15:12.547Z,26.70
2022-09-02T09:17:48.464Z,26.94
2022-09-02T09:20:22.753Z,27.26
2022-09-02T09:22:56.844Z,27.68
2022-09-02T09:25:29.646Z,28.00
2022-09-02T09:27:59.879Z,27.84
2022-09-02T09:30:30.307Z,27.88
2022-09-02T09:33:02.165Z,27.90
2022-09-02T09:35:51.340Z,28.16
2022-09-02T09:38:32.059Z,28.54
2022-09-02T09:41:20.640Z,28.94
2022-09-02T09:43:50.269Z,29.52
2022-09-02T09:46:28.324Z,29.64
2022-09-02T09:48:58.167Z,29.08
2022-09-02T09:51:27.645Z,28.90
2022-09-02T09:54:16.307Z,28.64
2022-09-02T09:56:45.716Z,29.68
2022-09-02T09:59:42.668Z,29.18
2022-09-02T10:02:23.018Z,29.40
2022-09-02T10:04:54.989Z,30.06
2022-09-02T10:07:39.993Z,30.48
2022-09-02T10:10:20.032Z,30.82
2022-09-02T10:12:54.920Z,29.86
2022-09-02T10:15:40.729Z,28.58
2022-09-02T10:18:33.086Z,27.30
2022-09-02T10:21:15.641Z,26.36
2022-09-02T10:24:00.139Z,25.64
2022-09-02T10:26:38.707Z,25.04
2022-09-02T10:29:52.785Z,24.50
2022-09-02T10:32:47.152Z,24.28
2022-09-02T10:35:25.455Z,26.92
2022-09-02T10:38:11.186Z,28.90
2022-09-02T10:40:50.407Z,27.96
2022-09-02T10:43:33.147Z,26.94
2022-09-02T10:46:08.979Z,27.26
2022-09-02T10:48:53.655Z,28.96
2022-09-02T10:51:30.628Z,31.12
2022-09-02T10:54:19.147Z,32.82
2022-09-02T10:57:02.131Z,33.94
2022-09-02T10:59:37.844Z,32.06
2022-09-02T11:02:14.948Z,31.88
2022-09-02T11:04:51.513Z,33.44
2022-09-02T11:07:32.613Z,33.80
2022-09-02T11:10:12.119Z,34.62
2022-09-02T11:12:44.969Z,34.34
2022-09-02T11:15:22.096Z,33.04
2022-09-02T11:18:01.819Z,33.12
2022-09-02T11:20:41.319Z,33.66
2022-09-02T11:23:24.986Z,34.30
2022-09-02T11:26:03.567Z,34.86
2022-09-02T11:28:43.184Z,35.24
2022-09-02T11:31:21.183Z,34.48
2022-09-02T11:36:40.468Z,29.78
2022-09-02T11:39:30.679Z,29.14
2022-09-02T11:42:32.425Z,31.06
2022-09-02T11:45:36.180Z,31.86
2022-09-02T11:49:05.987Z,31.88
2022-09-02T11:51:58.685Z,32.32
2022-09-02T11:54:36.281Z,33.72
2022-09-02T11:57:07.305Z,35.24
2022-09-02T12:00:25.780Z,36.08
2022-09-02T12:03:35.833Z,37.92
2022-09-02T12:06:14.205Z,37.50
2022-09-02T12:13:08.414Z,36.88
2022-09-02T12:15:40.215Z,37.86
2022-09-02T12:18:27.796Z,36.04
2022-09-02T12:21:16.222Z,34.34
2022-09-02T12:24:11.979Z,32.90
2022-09-02T12:27:23.309Z,31.48
2022-09-02T12:29:53.550Z,29.60
2022-09-02T12:33:09.279Z,28.82
2022-09-02T12:35:56.999Z,28.74
2022-09-02T12:38:36.008Z,30.06
2022-09-02T12:41:34.087Z,32.24
2022-09-02T12:44:21.829Z,34.02
2022-09-02T12:47:04.030Z,35.90
2022-09-02T12:49:47.869Z,36.80
2022-09-02T12:52:43.825Z,34.10
2022-09-02T12:55:22.478Z,31.38
2022-09-02T12:57:54.545Z,29.50
2022-09-02T13:00:45.540Z,27.72
2022-09-02T13:03:43.457Z,26.32
2022-09-02T13:06:22.853Z,25.54
2022-09-02T13:09:25.744Z,25.08
2022-09-02T13:12:41.571Z,26.10
2022-09-02T13:15:26.529Z,28.90
2022-09-02T13:18:27.638Z,31.64
2022-09-02T13:21:31.875Z,33.90
2022-09-02T13:24:47.984Z,33.98
2022-09-02T13:27:59.449Z,33.12
2022-09-02T13:30:49.039Z,31.62
2022-09-02T13:33:19.346Z,30.26
2022-09-02T13:35:55.431Z,29.08
2022-09-02T13:38:26.735Z,27.58
2022-09-02T13:40:56.362Z,26.36
2022-09-02T13:43:27.856Z,25.52
2022-09-02T13:46:02.025Z,24.84
2022-09-02T13:48:34.077Z,24.40
2022-09-02T13:51:12.811Z,24.10
2022-09-02T13:54:05.613Z,23.88
2022-09-02T13:56:36.714Z,23.60
2022-09-02T13:59:06.219Z,23.50
2022-09-02T14:01:39.420Z,23.40
2022-09-02T14:04:14.952Z,23.30
2022-09-02T14:06:47.797Z,23.26
2022-09-02T14:09:25.617Z,23.20
2022-09-02T14:11:56.785Z,23.30
2022-09-02T14:14:27.085Z,23.30
2022-09-02T14:17:21.295Z,23.66
2022-09-02T14:19:51.410Z,24.46
2022-09-02T14:22:29.677Z,24.72
2022-09-02T14:24:59.153Z,24.52
2022-09-02T14:27:28.587Z,24.30
2022-09-02T14:29:59.135Z,24.00
2022-09-02T14:32:29.305Z,23.80
2022-09-02T14:35:19.775Z,23.70
2022-09-02T14:37:59.254Z,23.70
2022-09-02T14:40:37.153Z,23.82
2022-09-02T14:43:13.207Z,24.48
2022-09-02T14:45:47.733Z,26.06
2022-09-02T14:48:24.584Z,27.00
2022-09-02T14:51:03.057Z,26.66
2022-09-02T14:53:33.257Z,25.80
2022-09-02T14:56:03.651Z,24.84
2022-09-02T14:58:33.252Z,24.14
2022-09-02T15:01:04.358Z,23.60
2022-09-02T15:03:38.050Z,23.06
2022-09-02T15:06:10.854Z,22.60
2022-09-02T15:08:44.690Z,22.24
2022-09-02T15:11:17.675Z,22.00
2022-09-02T15:13:47.208Z,21.88
2022-09-02T15:16:16.702Z,21.74
2022-09-02T15:18:46.077Z,21.70
2022-09-02T15:21:16.463Z,21.70
2022-09-02T15:23:50.566Z,21.70
2022-09-02T15:26:20.642Z,21.80
2022-09-02T15:28:50.458Z,21.80
2022-09-02T15:31:19.930Z,21.74
2022-09-02T15:33:52.487Z,21.60
2022-09-02T15:36:23.986Z,21.50
2022-09-02T15:38:53.535Z,21.48
2022-09-02T15:41:27.219Z,21.32
2022-09-02T15:43:59.109Z,21.20
2022-09-02T15:46:30.682Z,21.20
2022-09-02T15:49:03.958Z,21.10
2022-09-02T15:51:34.489Z,21.10
2022-09-02T15:54:06.816Z,21.10
2022-09-02T15:56:39.794Z,21.14
2022-09-02T15:59:12.529Z,21.20
2022-09-02T16:01:44.454Z,21.40
2022-09-02T16:04:14.554Z,21.40
2022-09-02T16:06:47.277Z,21.50
2022-09-02T16:09:18.245Z,21.50
2022-09-02T16:11:49.760Z,21.40
2022-09-02T16:14:21.430Z,21.36
2022-09-02T16:16:53.366Z,21.20
2022-09-02T16:19:25.260Z,21.08
2022-09-02T16:21:54.716Z,20.90
2022-09-02T16:24:24.221Z,20.70
2022-09-02T16:26:53.729Z,20.60
2022-09-02T16:29:28.023Z,20.40
2022-09-02T16:32:14.373Z,20.30
2022-09-02T16:34:48.857Z,20.24
2022-09-02T16:37:18.774Z,20.10
2022-09-02T16:39:48.269Z,20.10
2022-09-02T16:42:17.682Z,20.02
2022-09-02T16:44:51.398Z,20.00
2022-09-02T16:47:21.196Z,19.90
2022-09-02T16:49:50.634Z,19.86
2022-09-02T16:52:20.312Z,19.80
2022-09-02T16:54:49.610Z,19.80
2022-09-02T16:57:18.840Z,19.70
2022-09-02T16:59:49.237Z,19.70
2022-09-02T17:02:17.974Z,19.60
2022-09-02T17:04:47.465Z,19.50
2022-09-02T17:07:16.845Z,19.50
2022-09-02T17:09:46.445Z,19.40
2022-09-02T17:12:16.091Z,19.40
2022-09-02T17:14:45.653Z,19.30
2022-09-02T17:17:16.806Z,19.30
2022-09-02T17:19:46.096Z,19.28
2022-09-02T17:22:15.498Z,19.20
2022-09-02T17:24:44.834Z,19.20
2022-09-02T17:27:14.202Z,19.10
2022-09-02T17:29:51.057Z,19.10
2022-09-02T17:32:21.310Z,19.00
2022-09-02T17:34:51.201Z,19.00
2022-09-02T17:37:21.720Z,18.90
2022-09-02T17:39:51.143Z,18.80
2022-09-02T17:42:21.322Z,18.80
2022-09-02T17:44:50.819Z,18.70
2022-09-02T17:47:22.560Z,18.60
2022-09-02T17:49:52.323Z,18.60
2022-09-02T17:52:24.031Z,18.50
2022-09-02T17:54:54.658Z,18.40
2022-09-02T17:57:42.680Z,18.30
2022-09-02T18:00:15.376Z,18.20
2022-09-02T18:03:23.956Z,18.12
2022-09-02T18:06:11.284Z,18.08
2022-09-02T18:08:52.403Z,18.00
2022-09-02T18:11:22.770Z,17.90
2022-09-02T18:14:09.510Z,17.82
2022-09-02T18:16:54.991Z,17.80
2022-09-02T18:19:47.065Z,17.70
2022-09-02T18:22:41.364Z,17.70
2022-09-02T18:25:33.411Z,17.60
2022-09-02T18:28:16.909Z,17.50
2022-09-02T18:30:54.514Z,17.42
2022-09-02T18:33:42.316Z,17.40
2022-09-02T18:36:25.784Z,17.30
2022-09-02T18:39:15.642Z,17.24
2022-09-02T18:42:02.355Z,17.20
2022-09-02T18:44:41.370Z,17.12
2022-09-02T18:47:15.992Z,17.10
2022-09-02T18:49:46.854Z,17.00
2022-09-02T18:52:16.122Z,17.00
2022-09-02T18:54:53.824Z,17.00
2022-09-02T18:57:23.820Z,17.00
2022-09-02T19:00:01.234Z,17.00
2022-09-02T19:02:41.219Z,17.00
2022-09-02T19:05:23.796Z,16.90
2022-09-02T19:08:19.147Z,16.90
2022-09-02T19:10:48.815Z,16.90
2022-09-02T19:13:19.874Z,16.80
2022-09-02T19:15:49.564Z,16.80
2022-09-02T19:18:25.523Z,16.80
2022-09-02T19:20:57.792Z,16.72
2022-09-02T19:23:29.038Z,16.70
2022-09-02T19:25:59.333Z,16.70
2022-09-02T19:28:28.264Z,16.70
2022-09-02T19:31:03.460Z,16.66
2022-09-02T19:33:36.340Z,16.60
2022-09-02T19:36:07.831Z,16.50
2022-09-02T19:38:38.681Z,16.42
2022-09-02T19:41:08.411Z,16.40
2022-09-02T19:43:39.828Z,16.30
2022-09-02T19:46:27.756Z,16.24
2022-09-02T19:49:00.174Z,16.20
2022-09-02T19:51:29.565Z,16.20
2022-09-02T19:54:00.012Z,16.10
2022-09-02T19:56:29.474Z,16.02
2022-09-02T19:58:59.314Z,16.00
2022-09-02T20:01:28.924Z,15.92
2022-09-02T20:03:58.394Z,15.90
2022-09-02T20:06:28.021Z,15.80
2022-09-02T20:08:57.302Z,15.70
2022-09-02T20:11:26.709Z,15.60
2022-09-02T20:13:56.315Z,15.58
2022-09-02T20:16:28.932Z,15.50
2022-09-02T20:18:58.707Z,15.50
2022-09-02T20:21:32.095Z,15.40
2022-09-02T20:24:06.091Z,15.40
2022-09-02T20:26:48.729Z,15.38
2022-09-02T20:29:34.152Z,15.36
2022-09-02T20:32:14.871Z,15.36
2022-09-02T20:35:09.940Z,15.40
2022-09-02T20:37:54.637Z,15.40
2022-09-02T20:40:45.409Z,15.40
2022-09-02T20:43:45.064Z,15.40
2022-09-02T20:46:35.655Z,15.46
2022-09-02T20:49:22.707Z,15.50
2022-09-02T20:52:03.851Z,15.56
2022-09-02T20:54:42.890Z,15.60
2022-09-02T20:57:29.519Z,15.60
2022-09-02T21:00:08.474Z,15.70
2022-09-02T21:02:45.896Z,15.70
2022-09-02T21:05:22.070Z,15.70
2022-09-02T21:08:01.089Z,15.70
2022-09-02T21:10:38.589Z,15.70
2022-09-02T21:13:15.467Z,15.70
2022-09-02T21:15:49.376Z,15.70
2022-09-02T21:18:28.093Z,15.74
2022-09-02T21:21:04.832Z,15.78
2022-09-02T21:23:39.170Z,15.80
2022-09-02T21:26:18.529Z,15.80
2022-09-02T21:28:59.296Z,15.80
2022-09-02T21:31:35.658Z,15.78
2022-09-02T21:34:12.189Z,15.80
2022-09-02T21:36:42.057Z,15.80
2022-09-02T21:39:16.873Z,15.80
2022-09-02T21:41:55.592Z,15.78
2022-09-02T21:44:40.080Z,15.70
2022-09-02T21:47:21.541Z,15.70
2022-09-02T21:50:06.231Z,15.70
2022-09-02T21:52:58.156Z,15.70
2022-09-02T21:55:46.587Z,15.70
2022-09-02T21:58:46.655Z,15.70
2022-09-02T22:01:34.974Z,15.62
2022-09-02T22:04:16.022Z,15.60
2022-09-02T22:06:52.187Z,15.60
2022-09-02T22:09:27.599Z,15.60
2022-09-02T22:12:05.160Z,15.50
2022-09-02T22:14:43.855Z,15.50
2022-09-02T22:17:22.357Z,15.50
2022-09-02T22:19:57.392Z,15.42
2022-09-02T22:22:31.709Z,15.40
2022-09-02T22:25:01.111Z,15.40
2022-09-02T22:27:39.185Z,15.40
2022-09-02T22:30:12.989Z,15.38
2022-09-02T22:32:47.212Z,15.32
2022-09-02T22:35:24.454Z,15.30
2022-09-02T22:38:03.048Z,15.30
2022-09-02T22:40:39.518Z,15.30
2022-09-02T22:43:13.934Z,15.30
2022-09-02T22:46:05.712Z,15.30
2022-09-02T22:48:59.232Z,15.30
2022-09-02T22:51:54.952Z,15.30
2022-09-02T22:54:26.713Z,15.20
2022-09-02T22:57:05.844Z,15.20
2022-09-02T23:00:01.339Z,15.20
2022-09-02T23:02:36.804Z,15.14
2022-09-02T23:05:44.707Z,15.10
2022-09-02T23:08:16.957Z,15.10
2022-09-02T23:10:57.046Z,15.08
2022-09-02T23:13:44.683Z,15.00
2022-09-02T23:16:27.432Z,15.00
2022-09-02T23:19:12.143Z,14.94
2022-09-02T23:22:00.005Z,14.90
2022-09-02T23:24:44.735Z,14.90
2022-09-02T23:27:30.727Z,14.90
2022-09-02T23:30:00.175Z,14.90
2022-09-02T23:32:58.542Z,14.82
2022-09-02T23:35:36.965Z,14.80
2022-09-02T23:38:31.361Z,14.80
2022-09-02T23:41:08.369Z,14.80
2022-09-02T23:43:38.913Z,14.80
2022-09-02T23:46:21.586Z,14.80
2022-09-02T23:49:04.362Z,14.80
2022-09-02T23:51:42.268Z,14.80
2022-09-02T23:54:31.845Z,14.80
2022-09-02T23:57:20.771Z,14.70
